Time;durP1;ratioP1;P1;durP2;ratioP2;P2;SDS_P1;SDS_P2;PMS_P1;PMS_P2;Temp;Humidity;BMP_temperature;BMP_pressure;BME280_temperature;BME280_humidity;BME280_pressure;Samples;Min_cycle;Max_cycle;Signal;HPM_P1;HPM_P2
2022/06/26 00:01:00;;;;;;;8.80;5.80;;;;;;;16.47;83.32;100959.98;107072;1250;70347;-73
2022/06/26 00:03:29;;;;;;;9.60;6.10;;;;;;;16.48;83.18;100959.70;107336;1250;68750;-75
2022/06/26 00:05:58;;;;;;;9.50;6.00;;;;;;;16.48;83.86;100960.74;107103;1251;71670;-73
2022/06/26 00:08:27;;;;;;;8.30;6.10;;;;;;;16.47;84.05;100962.27;107151;1250;61323;-74
2022/06/26 00:10:56;;;;;;;6.20;5.30;;;;;;;16.44;83.99;100963.20;107290;1249;60410;-73
2022/06/26 00:13:26;;;;;;;8.80;6.20;;;;;;;16.37;84.27;100966.66;107207;1250;73524;-71
2022/06/26 00:15:55;;;;;;;8.10;5.60;;;;;;;16.31;84.16;100972.52;107229;1250;72144;-73
2022/06/26 00:18:24;;;;;;;8.90;5.90;;;;;;;16.25;84.41;100975.60;107277;1250;71381;-72
2022/06/26 00:20:53;;;;;;;7.70;6.10;;;;;;;16.21;84.58;100974.52;107363;1248;74723;-71
2022/06/26 00:23:22;;;;;;;10.40;6.00;;;;;;;16.10;84.65;100972.20;107326;1250;62825;-72
2022/06/26 00:25:51;;;;;;;7.90;5.90;;;;;;;16.04;84.43;100970.39;107366;1250;61590;-71
2022/06/26 00:28:20;;;;;;;8.10;5.40;;;;;;;16.03;84.72;100971.75;107248;1248;71333;-72
2022/06/26 00:30:49;;;;;;;9.30;5.70;;;;;;;16.01;84.36;100969.35;107194;1250;71838;-71
2022/06/26 00:33:18;;;;;;;6.10;5.30;;;;;;;16.00;84.59;100970.85;107100;1250;68287;-72
2022/06/26 00:35:47;;;;;;;7.90;5.80;;;;;;;15.99;84.34;100973.75;107266;1250;72803;-73
2022/06/26 00:38:16;;;;;;;9.20;5.90;;;;;;;15.99;84.16;100971.44;107350;1250;61187;-75
2022/06/26 00:40:45;;;;;;;7.60;5.60;;;;;;;15.99;84.12;100973.36;107156;1251;59559;-75
2022/06/26 00:43:14;;;;;;;9.50;5.60;;;;;;;15.99;84.44;100978.98;107267;1250;71485;-74
2022/06/26 00:45:43;;;;;;;9.10;6.50;;;;;;;15.98;84.62;100985.21;106895;1251;70356;-68
2022/06/26 00:48:12;;;;;;;9.20;6.40;;;;;;;15.99;84.92;100987.42;107148;1250;69152;-69
2022/06/26 00:50:41;;;;;;;8.90;6.00;;;;;;;15.97;83.73;100982.63;107228;1250;74409;-70
2022/06/26 00:53:10;;;;;;;7.40;5.60;;;;;;;15.94;84.43;100984.19;107099;1250;63431;-70
2022/06/26 00:55:39;;;;;;;9.20;6.30;;;;;;;15.87;84.42;100980.55;107042;1251;61650;-67
2022/06/26 00:58:08;;;;;;;7.20;5.90;;;;;;;15.84;84.79;100982.43;107036;1250;73039;-68
2022/06/26 01:00:37;;;;;;;9.30;5.80;;;;;;;15.81;84.65;100984.39;107177;1250;71021;-68
2022/06/26 01:03:06;;;;;;;9.30;6.10;;;;;;;15.81;84.35;100982.93;107301;1250;71528;-66
2022/06/26 01:05:36;;;;;;;8.40;5.80;;;;;;;15.81;84.85;100979.94;107101;1250;74489;-68
2022/06/26 01:08:07;;;;;;;7.90;5.70;;;;;;;15.81;84.47;100982.02;107340;1250;61857;-66
2022/06/26 01:10:38;;;;;;;8.70;6.30;;;;;;;15.82;84.62;100988.54;107129;1251;58795;-69
2022/06/26 01:13:08;;;;;;;8.80;6.60;;;;;;;15.81;84.53;100993.73;107195;1250;73222;-67
2022/06/26 01:15:39;;;;;;;12.40;6.50;;;;;;;15.80;85.02;100994.23;107111;1248;72034;-69
2022/06/26 01:18:10;;;;;;;10.40;6.60;;;;;;;15.79;85.22;100993.12;107195;1251;70315;-68
2022/06/26 01:20:40;;;;;;;7.70;5.70;;;;;;;15.76;84.79;100992.64;107123;1250;73584;-68
2022/06/26 01:23:09;;;;;;;9.90;6.80;;;;;;;15.75;85.22;100992.94;107233;1250;61154;-72
2022/06/26 01:25:46;;;;;;;8.00;6.20;;;;;;;15.77;85.90;100995.21;107153;1250;61311;-66
2022/06/26 01:28:16;;;;;;;13.20;6.50;;;;;;;15.79;85.86;101002.95;107268;1249;72747;-66
2022/06/26 01:30:46;;;;;;;10.40;6.60;;;;;;;15.80;85.40;101004.03;107180;1251;72363;-67
2022/06/26 01:33:16;;;;;;;10.10;6.40;;;;;;;15.81;85.38;101005.39;107237;1249;70275;-68
2022/06/26 01:35:45;;;;;;;8.40;6.20;;;;;;;15.81;85.49;101002.03;107137;1251;74968;-68
2022/06/26 01:38:25;;;;;;;9.30;6.50;;;;;;;15.80;85.08;101006.70;107198;1250;62560;-68
2022/06/26 01:40:56;;;;;;;8.40;6.00;;;;;;;15.79;85.21;101008.67;107153;1250;61204;-69
2022/06/26 01:43:32;;;;;;;8.30;6.70;;;;;;;15.81;85.52;101011.68;107112;1251;70409;-70
2022/06/26 01:46:03;;;;;;;10.50;7.20;;;;;;;15.83;85.89;101014.33;107295;1249;70701;-65
2022/06/26 01:48:37;;;;;;;16.50;7.50;;;;;;;15.84;85.99;101018.21;107086;1250;68596;-69
2022/06/26 01:51:07;;;;;;;8.70;6.50;;;;;;;15.86;85.70;101020.05;107328;1250;73846;-68
2022/06/26 01:53:38;;;;;;;8.90;6.30;;;;;;;15.82;85.11;101019.11;107270;1250;61981;-69
2022/06/26 01:56:07;;;;;;;9.20;5.70;;;;;;;15.78;84.73;101024.27;107300;1250;59316;-70
2022/06/26 01:58:40;;;;;;;8.50;6.40;;;;;;;15.75;84.85;101025.23;107338;1249;73566;-68
2022/06/26 02:01:11;;;;;;;11.70;6.60;;;;;;;15.72;84.99;101028.79;107247;1251;72031;-68
2022/06/26 02:03:40;;;;;;;10.70;6.40;;;;;;;15.70;85.00;101028.11;107231;1248;71048;-68
2022/06/26 02:06:10;;;;;;;14.20;6.20;;;;;;;15.68;84.75;101028.70;107442;1249;74174;-69
2022/06/26 02:08:39;;;;;;;10.00;6.40;;;;;;;15.64;84.55;101024.27;107267;1250;63447;-69
2022/06/26 02:13:57;;;;;;;10.70;6.50;;;;;;;15.54;85.49;101024.79;107262;1249;71968;-68
2022/06/26 02:16:31;;;;;;;9.20;6.70;;;;;;;15.50;86.26;101027.02;107181;1250;71170;-67
2022/06/26 02:19:00;;;;;;;9.60;6.90;;;;;;;15.47;86.26;101027.86;107220;1249;69081;-68
2022/06/26 02:21:30;;;;;;;11.60;6.40;;;;;;;15.42;85.70;101024.44;107163;1251;73282;-67
2022/06/26 02:23:59;;;;;;;9.30;6.70;;;;;;;15.36;84.53;101025.65;107885;1249;60402;-67
2022/06/26 02:26:28;;;;;;;12.10;7.00;;;;;;;15.29;85.78;101031.34;107583;1251;61138;-69
2022/06/26 02:28:58;;;;;;;11.90;7.20;;;;;;;15.24;87.85;101033.00;107349;1250;71823;-74
2022/06/26 02:31:29;;;;;;;9.60;7.20;;;;;;;15.23;87.78;101037.46;107251;1249;70058;-69
2022/06/26 02:33:58;;;;;;;9.10;6.90;;;;;;;15.24;87.70;101035.61;107132;1251;68167;-68
2022/06/26 02:36:27;;;;;;;10.00;6.70;;;;;;;15.29;88.50;101036.46;107196;1250;71130;-69
2022/06/26 02:38:56;;;;;;;10.20;7.10;;;;;;;15.34;88.17;101039.73;107168;1248;60523;-70
2022/06/26 02:41:25;;;;;;;14.00;6.90;;;;;;;15.37;87.93;101040.48;107312;1250;61153;-70
2022/06/26 02:43:56;;;;;;;10.80;8.10;;;;;;;15.42;87.47;101040.20;107311;1251;73118;-70
2022/06/26 02:46:25;;;;;;;14.00;8.00;;;;;;;15.46;86.21;101041.84;107297;1251;71021;-68
2022/06/26 02:48:56;;;;;;;9.80;6.60;;;;;;;15.46;87.43;101039.89;107155;1251;69002;-67
2022/06/26 02:51:25;;;;;;;11.20;7.20;;;;;;;15.46;86.44;101039.86;107044;1251;72292;-67
2022/06/26 02:53:54;;;;;;;8.20;6.00;;;;;;;15.47;85.87;101040.83;107186;1250;62079;-69
2022/06/26 02:56:23;;;;;;;12.40;7.30;;;;;;;15.50;86.21;101045.54;107224;1248;60249;-70
2022/06/26 02:58:52;;;;;;;9.80;6.80;;;;;;;15.50;86.26;101045.98;107257;1250;71132;-70
2022/06/26 03:01:21;;;;;;;8.70;6.90;;;;;;;15.52;85.93;101047.45;107157;1250;72271;-68
2022/06/26 03:03:52;;;;;;;13.90;8.40;;;;;;;15.58;85.93;101044.95;107267;1250;68371;-68
2022/06/26 03:06:21;;;;;;;12.10;8.00;;;;;;;15.63;85.68;101049.27;107342;1250;74006;-68
2022/06/26 03:08:50;;;;;;;13.10;7.50;;;;;;;15.65;85.60;101042.83;107231;1249;63463;-67
2022/06/26 03:11:19;;;;;;;9.00;7.10;;;;;;;15.70;84.88;101049.53;107161;1250;60190;-68
2022/06/26 03:13:48;;;;;;;9.50;6.50;;;;;;;15.68;84.24;101048.54;107110;1251;72064;-68
2022/06/26 03:16:17;;;;;;;9.90;6.70;;;;;;;15.63;84.49;101041.36;107021;1250;70315;-68
2022/06/26 03:18:46;;;;;;;10.00;6.70;;;;;;;15.62;85.48;101041.07;107177;1250;69068;-68
2022/06/26 03:21:15;;;;;;;9.70;6.60;;;;;;;15.65;85.49;101043.67;106992;1250;71377;-67
2022/06/26 03:24:02;;;;;;;11.50;8.80;;;;;;;15.70;85.30;101043.25;107301;1250;60615;-68
2022/06/26 03:26:36;;;;;;;10.40;7.80;;;;;;;15.75;85.58;101047.48;107239;1250;59652;-69
2022/06/26 03:29:09;;;;;;;11.40;8.60;;;;;;;15.85;85.81;101051.04;107234;1251;71663;-70
2022/06/26 03:31:39;;;;;;;12.20;8.10;;;;;;;15.94;84.93;101055.46;107174;1251;71395;-69
2022/06/26 03:34:10;;;;;;;11.20;8.30;;;;;;;16.03;85.64;101054.35;107380;1250;69353;-72
2022/06/26 03:36:41;;;;;;;10.30;8.20;;;;;;;16.04;86.13;101056.48;107183;1250;74362;-68
2022/06/26 03:39:11;;;;;;;13.40;8.70;;;;;;;16.08;86.39;101057.72;107081;1250;62770;-68
2022/06/26 03:41:40;;;;;;;10.40;8.70;;;;;;;16.09;86.24;101058.85;107190;1250;60588;-68
2022/06/26 03:44:09;;;;;;;11.80;8.60;;;;;;;16.10;86.26;101064.08;107145;1249;75120;-68
2022/06/26 03:46:38;;;;;;;13.50;9.30;;;;;;;16.11;86.18;101067.66;107209;1249;72213;-68
2022/06/26 03:49:07;;;;;;;12.30;9.10;;;;;;;16.11;86.08;101062.86;107148;1250;69755;-67
2022/06/26 03:51:37;;;;;;;13.80;9.00;;;;;;;16.14;85.99;101065.08;107269;1250;73559;-68
2022/06/26 03:54:06;;;;;;;13.50;9.80;;;;;;;16.22;85.59;101063.66;107234;1249;60803;-66
2022/06/26 03:56:36;;;;;;;12.80;9.40;;;;;;;16.31;85.26;101066.02;107049;1250;61700;-68
2022/06/26 03:59:05;;;;;;;13.60;9.60;;;;;;;16.40;85.01;101068.48;107274;1250;74028;-68
2022/06/26 04:01:36;;;;;;;12.80;8.90;;;;;;;16.50;84.92;101072.52;107219;1250;70717;-69
2022/06/26 04:04:06;;;;;;;14.50;9.50;;;;;;;16.63;84.10;101073.98;107310;1250;69823;-68
2022/06/26 04:06:35;;;;;;;14.20;9.00;;;;;;;16.73;83.60;101075.55;106749;1250;707863;-68
2022/06/26 04:09:09;;;;;;;13.00;8.50;;;;;;;16.81;83.27;101074.77;107337;1250;63328;-69
2022/06/26 04:11:39;;;;;;;12.10;9.30;;;;;;;16.88;82.91;101075.24;107179;1250;61299;-69
2022/06/26 04:14:08;;;;;;;14.10;9.40;;;;;;;16.96;82.69;101078.00;107448;1250;73346;-69
2022/06/26 04:16:37;;;;;;;12.70;10.00;;;;;;;17.04;82.57;101078.34;107398;1250;72608;-69
2022/06/26 04:19:06;;;;;;;12.20;8.70;;;;;;;17.14;82.37;101075.39;107337;1250;67795;-71
2022/06/26 04:21:37;;;;;;;12.40;9.10;;;;;;;17.28;81.81;101076.39;107502;1249;71393;-69
2022/06/26 04:24:09;;;;;;;11.40;9.40;;;;;;;17.35;81.59;101076.61;107521;1250;62634;-68
2022/06/26 04:26:37;;;;;;;11.60;9.10;;;;;;;17.41;81.54;101071.59;107274;1250;60736;-67
2022/06/26 04:29:07;;;;;;;12.50;8.50;;;;;;;17.48;81.50;101074.23;107556;1249;74682;-69
2022/06/26 04:31:38;;;;;;;11.00;7.80;;;;;;;17.53;80.90;101072.80;107351;1250;72688;-69
2022/06/26 04:34:09;;;;;;;11.10;8.00;;;;;;;17.56;80.89;101075.11;107523;1250;60591;-70
2022/06/26 04:36:38;;;;;;;11.20;8.40;;;;;;;17.62;80.91;101072.56;107317;1249;62347;-69
2022/06/26 04:39:07;;;;;;;9.80;7.50;;;;;;;17.66;80.36;101073.25;107501;1249;62247;-68
2022/06/26 04:41:36;;;;;;;11.50;7.60;;;;;;;17.65;80.55;101074.44;107467;1248;59101;-70
2022/06/26 04:44:11;;;;;;;11.00;7.70;;;;;;;17.65;80.09;101074.20;107364;1250;73615;-68
2022/06/26 04:46:42;;;;;;;10.40;7.90;;;;;;;17.70;80.56;101073.73;107503;1250;72590;-68
2022/06/26 04:49:13;;;;;;;9.70;7.40;;;;;;;17.76;80.50;101077.09;107387;1250;72073;-65
2022/06/26 04:51:42;;;;;;;12.40;8.50;;;;;;;17.88;80.35;101074.67;107228;1250;74315;-68
2022/06/26 04:54:26;;;;;;;10.90;7.20;;;;;;;17.96;79.83;101075.50;107130;1250;58767;-69
2022/06/26 04:56:55;;;;;;;13.00;8.60;;;;;;;18.00;79.52;101077.19;107240;1248;61881;-68
2022/06/26 04:59:24;;;;;;;10.50;8.40;;;;;;;18.05;79.26;101075.70;107294;1250;74534;-69
2022/06/26 05:02:03;;;;;;;14.60;9.40;;;;;;;18.08;79.30;101072.19;107386;1250;61384;-69
2022/06/26 05:04:47;;;;;;;13.10;9.30;;;;;;;18.09;79.55;101068.57;107252;1250;59976;-70
2022/06/26 05:07:24;;;;;;;10.00;7.80;;;;;;;18.23;79.51;101068.94;107226;1250;74291;-69
2022/06/26 05:09:53;;;;;;;10.40;8.30;;;;;;;18.32;79.04;101069.11;107097;1250;59068;-69
2022/06/26 05:12:23;;;;;;;10.90;8.40;;;;;;;18.39;78.55;101073.37;107439;1251;59065;-71
2022/06/26 05:15:10;;;;;;;11.60;8.20;;;;;;;18.41;78.10;101074.40;107477;1250;62941;-68
2022/06/26 05:17:43;;;;;;;9.30;7.40;;;;;;;18.45;77.95;101076.23;107334;1248;71402;-69
2022/06/26 05:20:16;;;;;;;;;;;;;;;18.51;78.08;101081.66;107327;1251;59130;-68
2022/06/26 05:22:45;;;;;;;11.50;8.20;;;;;;;18.58;77.82;101083.13;107346;1250;62441;-68
2022/06/26 05:25:16;;;;;;;13.60;9.00;;;;;;;18.68;77.41;101087.89;107354;1250;62182;-69
2022/06/26 05:27:46;;;;;;;16.00;9.30;;;;;;;18.79;77.28;101089.77;107323;1249;60805;-68
2022/06/26 05:30:17;;;;;;;12.70;8.20;;;;;;;18.98;77.01;101089.69;107077;1250;62720;-67
2022/06/26 05:32:46;;;;;;;11.60;9.20;;;;;;;19.16;76.57;101087.64;107371;1249;61612;-67
2022/06/26 05:35:22;;;;;;;12.10;7.70;;;;;;;19.32;75.55;101085.58;107286;1250;70894;-68
2022/06/26 05:37:51;;;;;;;13.40;8.00;;;;;;;19.46;74.76;101094.20;107291;1250;73277;-68
2022/06/26 05:40:21;;;;;;;11.30;7.90;;;;;;;19.57;74.11;101097.16;107268;1250;59108;-68
2022/06/26 05:42:53;;;;;;;13.10;9.70;;;;;;;19.65;74.05;101099.39;107507;1250;61148;-68
2022/06/26 05:45:24;;;;;;;14.80;9.80;;;;;;;19.76;74.12;101100.88;107797;1250;62481;-71
2022/06/26 05:48:11;;;;;;;14.70;8.90;;;;;;;20.00;74.06;101104.84;107451;1249;63376;-68
2022/06/26 05:50:59;;;;;;;11.40;8.40;;;;;;;20.37;73.09;101105.01;107514;1250;68629;-68
2022/06/26 05:54:15;;;;;;;12.70;8.90;;;;;;;20.78;71.61;101103.28;106943;1250;73125;-72
2022/06/26 05:56:53;;;;;;;11.60;7.90;;;;;;;20.99;71.26;101102.02;107410;1250;58895;-72
2022/06/26 05:59:49;;;;;;;11.10;7.60;;;;;;;21.27;70.22;101103.97;107132;1250;59150;-68
2022/06/26 06:02:47;;;;;;;11.20;8.50;;;;;;;21.33;69.85;101106.52;107327;1250;62149;-69
2022/06/26 06:05:19;;;;;;;10.40;8.30;;;;;;;21.35;69.84;101107.87;107186;1250;61407;-73
2022/06/26 06:07:49;;;;;;;11.50;8.40;;;;;;;21.29;70.35;101108.27;106823;1250;69727;-73
2022/06/26 06:10:19;;;;;;;12.20;8.60;;;;;;;21.28;70.63;101109.14;107061;1252;63916;-69
2022/06/26 06:12:51;;;;;;;12.50;9.50;;;;;;;21.32;70.42;101113.86;106983;1250;62250;-71
2022/06/26 06:15:21;;;;;;;15.30;9.60;;;;;;;21.37;70.64;101119.29;106953;1250;60980;-68
2022/06/26 06:17:52;;;;;;;11.30;8.50;;;;;;;21.46;70.67;101118.98;107261;1250;62738;-70
2022/06/26 06:20:24;;;;;;;13.40;9.20;;;;;;;21.67;69.70;101112.02;107320;1250;72398;-69
2022/06/26 06:23:03;;;;;;;11.40;9.40;;;;;;;21.74;69.96;101118.00;107387;1249;60043;-70
2022/06/26 06:25:33;;;;;;;9.00;7.90;;;;;;;21.88;69.22;101111.81;107246;1249;73106;-71
2022/06/26 06:28:04;;;;;;;;;;;;;;;21.92;68.64;101114.35;107085;1250;58759;-72
2022/06/26 06:30:38;;;;;;;12.50;8.90;;;;;;;21.94;68.71;101117.06;107278;1250;61411;-70
2022/06/26 06:33:07;;;;;;;11.70;7.90;;;;;;;22.02;67.92;101120.88;107510;1250;62630;-69
2022/06/26 06:35:48;;;;;;;9.70;6.90;;;;;;;22.27;66.95;101116.95;106960;1251;72336;-70
2022/06/26 06:38:18;;;;;;;10.00;6.20;;;;;;;22.49;65.78;101121.06;107273;1250;60038;-68
2022/06/26 06:40:52;;;;;;;9.80;6.90;;;;;;;22.80;63.99;101125.06;107285;1250;73897;-70
2022/06/26 06:43:25;;;;;;;9.70;7.20;;;;;;;23.01;62.82;101129.11;107317;1250;61686;-69
2022/06/26 06:46:32;;;;;;;8.60;6.30;;;;;;;23.37;62.58;101130.07;107351;1250;59105;-72
2022/06/26 06:49:09;;;;;;;9.90;6.40;;;;;;;23.57;61.68;101127.42;107244;1250;62813;-68
2022/06/26 06:51:50;;;;;;;11.00;7.10;;;;;;;23.46;60.85;101124.00;107133;1250;70958;-68
2022/06/26 06:54:19;;;;;;;10.70;7.40;;;;;;;23.40;61.11;101119.88;107397;1250;59560;-72
2022/06/26 06:56:53;;;;;;;11.90;6.80;;;;;;;23.27;61.21;101119.00;107363;1250;62465;-68
2022/06/26 06:59:21;;;;;;;9.00;7.10;;;;;;;23.24;61.61;101116.85;107391;1250;60503;-70
2022/06/26 07:01:52;;;;;;;9.40;6.90;;;;;;;23.14;61.29;101116.84;107472;1250;60584;-70
2022/06/26 07:04:21;;;;;;;8.60;6.50;;;;;;;23.21;61.34;101117.05;107065;1251;74266;-70
2022/06/26 07:06:59;;;;;;;9.70;6.70;;;;;;;23.38;61.45;101114.21;107272;1250;62132;-70
2022/06/26 07:09:28;;;;;;;8.40;6.40;;;;;;;23.55;59.39;101114.98;107333;1250;70582;-71
2022/06/26 07:12:03;;;;;;;9.90;6.50;;;;;;;23.63;59.40;101114.56;107150;1250;66350;-69
2022/06/26 07:14:33;;;;;;;12.30;6.90;;;;;;;23.74;59.03;101109.70;107362;1251;58869;-69
2022/06/26 07:17:03;;;;;;;12.70;6.20;;;;;;;23.86;59.49;101107.70;107193;1251;61389;-73
2022/06/26 07:19:32;;;;;;;8.40;6.20;;;;;;;24.03;59.04;101107.55;107215;1251;73787;-67
2022/06/26 07:22:02;;;;;;;8.10;5.90;;;;;;;24.09;57.24;101105.77;107334;1250;61216;-69
2022/06/26 07:24:32;;;;;;;7.10;5.70;;;;;;;24.16;57.10;101102.39;107109;1251;60964;-74
2022/06/26 07:27:17;;;;;;;7.10;5.30;;;;;;;24.41;56.83;101099.31;107241;1251;73804;-73
2022/06/26 07:29:46;;;;;;;6.50;5.30;;;;;;;24.39;55.67;101101.21;107361;1250;59092;-75
2022/06/26 07:32:15;;;;;;;6.70;5.40;;;;;;;24.34;55.17;101099.58;107414;1250;57413;-73
2022/06/26 07:34:44;;;;;;;9.30;5.00;;;;;;;24.42;55.67;101099.73;107154;1250;64100;-74
2022/06/26 07:37:15;;;;;;;7.60;5.70;;;;;;;24.48;55.40;101095.40;107332;1250;62628;-73
2022/06/26 07:39:44;;;;;;;8.30;5.70;;;;;;;24.79;54.89;101091.94;107514;1250;69220;-77
2022/06/26 07:42:13;;;;;;;9.20;4.80;;;;;;;25.01;54.11;101093.70;107194;1252;62912;-74
2022/06/26 07:44:42;;;;;;;7.30;4.50;;;;;;;25.04;52.99;101095.58;107266;1250;59074;-77
2022/06/26 07:47:13;;;;;;;6.90;4.90;;;;;;;25.11;51.96;101095.70;107496;1250;59045;-75
2022/06/26 07:50:00;;;;;;;7.20;4.70;;;;;;;25.20;52.38;101091.08;107388;1250;71262;-73
2022/06/26 07:52:29;;;;;;;5.80;4.30;;;;;;;25.28;51.80;101091.40;107416;1250;60894;-73
2022/06/26 07:54:58;;;;;;;8.80;4.70;;;;;;;25.34;50.67;101085.54;107476;1250;70862;-72
2022/06/26 07:57:26;;;;;;;6.60;4.00;;;;;;;25.24;49.83;101084.80;107236;1250;74408;-73
2022/06/26 07:59:55;;;;;;;7.00;4.20;;;;;;;25.48;50.46;101085.94;107284;1250;61873;-74
2022/06/26 08:02:24;;;;;;;6.80;3.80;;;;;;;25.74;49.80;101084.02;107472;1250;59078;-72
2022/06/26 08:04:53;;;;;;;5.10;3.60;;;;;;;26.02;47.97;101083.70;107576;1250;63319;-73
2022/06/26 08:07:22;;;;;;;5.10;3.40;;;;;;;26.31;47.99;101083.08;107389;1250;60884;-77
2022/06/26 08:09:51;;;;;;;4.70;3.70;;;;;;;26.26;46.59;101084.46;107575;1250;70494;-78
2022/06/26 08:12:19;;;;;;;7.40;3.50;;;;;;;26.26;46.78;101082.41;107488;1250;74295;-77
2022/06/26 08:14:48;;;;;;;4.20;2.50;;;;;;;26.47;45.31;101080.05;107658;1250;57500;-77
2022/06/26 08:17:17;;;;;;;4.20;2.80;;;;;;;26.47;44.68;101078.73;107492;1250;58348;-76
2022/06/26 08:19:48;;;;;;;6.50;2.90;;;;;;;26.41;44.75;101077.41;107220;1250;63025;-73
2022/06/26 08:22:17;;;;;;;4.30;2.70;;;;;;;26.39;44.94;101078.06;107092;1251;61692;-73
2022/06/26 08:24:46;;;;;;;5.30;3.30;;;;;;;26.49;45.60;101074.49;107361;1250;59225;-73
2022/06/26 08:27:15;;;;;;;7.70;3.10;;;;;;;26.77;45.04;101070.30;107289;1250;62555;-76
2022/06/26 08:29:44;;;;;;;5.60;2.90;;;;;;;26.93;44.36;101074.56;107575;1250;59072;-75
2022/06/26 08:32:13;;;;;;;5.30;3.00;;;;;;;26.67;43.80;101068.00;107839;1250;60496;-77
2022/06/26 08:34:43;;;;;;;5.20;2.90;;;;;;;26.85;44.12;101067.06;108150;1250;73259;-72
2022/06/26 08:37:12;;;;;;;5.20;3.20;;;;;;;26.84;43.51;101064.64;108492;1250;72027;-75
2022/06/26 08:39:41;;;;;;;4.90;2.60;;;;;;;26.92;43.64;101058.52;107824;1250;70105;-75
2022/06/26 08:42:10;;;;;;;4.40;2.80;;;;;;;27.29;43.18;101058.20;107499;1250;73480;-77
2022/06/26 08:44:45;;;;;;;5.20;2.90;;;;;;;27.48;41.85;101061.44;107102;1250;59007;-72
2022/06/26 08:47:20;;;;;;;4.30;2.90;;;;;;;27.61;41.32;101056.55;107303;1250;57473;-72
2022/06/26 08:49:50;;;;;;;5.30;2.70;;;;;;;27.44;40.23;101055.52;107457;1250;62197;-79
2022/06/26 08:52:21;;;;;;;4.80;3.00;;;;;;;27.33;40.43;101053.63;107334;1250;61608;-72
2022/06/26 08:54:50;;;;;;;7.70;2.90;;;;;;;27.48;40.53;101054.63;107635;1249;59055;-69
2022/06/26 08:57:26;;;;;;;5.70;2.60;;;;;;;27.68;40.12;101061.64;107467;1250;62510;-74
2022/06/26 08:59:55;;;;;;;3.50;2.30;;;;;;;27.51;39.11;101062.16;107513;1250;60575;-78
2022/06/26 09:02:24;;;;;;;3.90;2.30;;;;;;;27.60;39.61;101061.67;108313;1249;57514;-75
2022/06/26 09:04:55;;;;;;;5.90;2.20;;;;;;;27.91;38.49;101067.76;107967;1250;73587;-72
2022/06/26 09:07:25;;;;;;;3.80;2.80;;;;;;;27.98;37.52;101069.36;107724;1251;62034;-76
2022/06/26 09:09:54;;;;;;;4.80;2.20;;;;;;;28.13;37.00;101060.88;108077;1249;59004;-74
2022/06/26 09:12:34;;;;;;;3.40;2.40;;;;;;;27.95;37.38;101069.88;107779;1250;73885;-76
2022/06/26 09:15:06;;;;;;;2.90;2.00;;;;;;;27.83;37.07;101072.75;107567;1251;59056;-77
2022/06/26 09:17:35;;;;;;;5.60;2.20;;;;;;;27.65;36.90;101072.92;107412;1250;59065;-74
2022/06/26 09:20:08;;;;;;;5.90;2.60;;;;;;;27.70;35.86;101077.34;107280;1250;62220;-71
2022/06/26 09:22:54;;;;;;;4.10;2.50;;;;;;;27.73;35.63;101077.03;107466;1250;62022;-68
2022/06/26 09:25:39;;;;;;;3.90;2.60;;;;;;;27.56;38.14;101077.51;107224;1251;59988;-72
2022/06/26 09:28:17;;;;;;;4.70;2.30;;;;;;;27.48;40.23;101081.09;107483;1250;74930;-73
2022/06/26 09:31:00;;;;;;;5.60;2.60;;;;;;;27.45;40.76;101085.40;107438;1250;58948;-73
2022/06/26 09:33:36;;;;;;;7.00;2.60;;;;;;;27.66;40.87;101089.64;107633;1250;57490;-74
2022/06/26 09:36:05;;;;;;;7.30;2.50;;;;;;;27.94;39.91;101094.88;107445;1250;73613;-72
2022/06/26 09:38:37;;;;;;;7.70;2.40;;;;;;;27.72;39.76;101097.01;107684;1250;62418;-72
2022/06/26 09:41:08;;;;;;;5.50;2.40;;;;;;;27.76;39.75;101098.42;107528;1250;70314;-72
2022/06/26 09:43:45;;;;;;;4.50;2.60;;;;;;;27.33;41.06;101100.00;107506;1250;62949;-71
2022/06/26 09:46:14;;;;;;;5.30;2.30;;;;;;;27.25;41.75;101104.45;107238;1250;61310;-74
2022/06/26 09:48:43;;;;;;;4.30;2.80;;;;;;;27.22;41.89;101107.43;107351;1250;58938;-71
2022/06/26 09:51:13;;;;;;;4.30;2.20;;;;;;;27.28;41.12;101105.73;107390;1250;72367;-72
2022/06/26 09:53:43;;;;;;;4.00;2.20;;;;;;;27.22;40.09;101102.81;107652;1250;71833;-80
2022/06/26 09:56:13;;;;;;;6.00;2.90;;;;;;;27.18;39.59;101103.98;107397;1250;60216;-83
2022/06/26 09:58:42;;;;;;;5.20;2.40;;;;;;;27.19;39.48;101103.27;107581;1251;63273;-80
2022/06/26 10:06:54;;;;;;;8.50;3.10;;;;;;;26.42;40.43;101104.29;107503;1250;73566;-82
2022/06/26 10:09:26;;;;;;;3.50;1.90;;;;;;;26.19;40.95;101107.70;107471;1250;62029;-79
2022/06/26 10:12:00;;;;;;;3.00;2.00;;;;;;;25.87;41.86;101109.27;107463;1250;69839;-80
2022/06/26 10:14:41;;;;;;;3.80;2.30;;;;;;;25.76;41.80;101108.02;107488;1250;62996;-76
2022/06/26 10:17:44;;;;;;;3.40;1.90;;;;;;;25.58;42.20;101113.39;107461;1250;59567;-81
2022/06/26 10:20:18;;;;;;;5.30;2.70;;;;;;;25.62;42.35;101114.31;107247;1250;61342;-77
2022/06/26 10:22:48;;;;;;;3.50;2.10;;;;;;;25.73;42.38;101116.54;107119;1250;76903;-78
2022/06/26 10:25:30;;;;;;;4.90;2.90;;;;;;;25.66;42.36;101118.06;107296;1251;62235;-76
2022/06/26 10:28:06;;;;;;;4.90;2.40;;;;;;;25.49;42.44;101118.45;107337;1250;69799;-73
2022/06/26 10:30:35;;;;;;;2.70;2.10;;;;;;;25.54;42.55;101119.94;107249;1251;74512;-79
2022/06/26 10:33:18;;;;;;;3.00;2.10;;;;;;;25.55;42.39;101119.83;107560;1250;60886;-77
2022/06/26 10:35:54;;;;;;;3.40;2.00;;;;;;;25.61;42.32;101117.50;107487;1250;60978;-82
2022/06/26 10:38:28;;;;;;;4.30;1.80;;;;;;;25.61;42.78;101121.09;107393;1250;73033;-78
2022/06/26 10:45:27;;;;;;;3.80;2.10;;;;;;;25.76;42.66;101119.39;107272;1251;60517;-78
2022/06/26 10:48:07;;;;;;;4.80;2.50;;;;;;;26.33;42.03;101116.23;107026;1251;63521;-80
2022/06/26 10:50:42;;;;;;;7.30;2.60;;;;;;;26.83;41.10;101115.72;107131;1251;61304;-84
2022/06/26 10:53:39;;;;;;;3.20;2.20;;;;;;;26.99;40.69;101113.90;107376;1250;59308;-77
2022/06/26 10:56:08;;;;;;;5.20;2.40;;;;;;;27.40;40.39;101120.87;107589;1250;73635;-84
2022/06/26 10:58:42;;;;;;;5.20;2.50;;;;;;;27.32;40.46;101119.50;107634;1250;61980;-84
2022/06/26 11:01:14;;;;;;;3.00;1.90;;;;;;;27.09;41.54;101122.02;107589;1248;59883;-79
2022/06/26 11:03:44;;;;;;;;;;;;;;;26.71;43.16;101121.67;107295;1250;63264;-80
2022/06/26 11:06:15;;;;;;;5.80;2.60;;;;;;;26.40;45.16;101124.54;107452;1249;60463;-76
2022/06/26 11:08:52;;;;;;;7.50;2.20;;;;;;;26.00;46.12;101129.51;107192;1250;58375;-81
2022/06/26 11:11:31;;;;;;;4.30;2.40;;;;;;;25.28;47.39;101129.89;107614;1249;72811;-80
2022/06/26 11:14:08;;;;;;;6.40;2.30;;;;;;;24.88;47.95;101126.69;107679;1250;62051;-81
2022/06/26 11:16:42;;;;;;;3.60;2.00;;;;;;;24.33;50.99;101128.59;107480;1250;68786;-79
2022/06/26 11:19:26;;;;;;;4.70;2.40;;;;;;;23.90;53.05;101125.75;107622;1250;73745;-75
2022/06/26 11:22:06;;;;;;;3.20;2.00;;;;;;;23.70;54.07;101120.31;107552;1250;58390;-75
2022/06/26 11:24:47;;;;;;;3.90;2.40;;;;;;;23.63;53.84;101111.91;107676;1250;60454;-71
2022/06/26 11:27:29;;;;;;;3.20;2.30;;;;;;;23.42;56.03;101115.14;107744;1249;63394;-70
2022/06/26 11:29:58;;;;;;;3.70;2.30;;;;;;;23.47;55.45;101113.68;107396;1250;71471;-79
2022/06/26 11:32:27;;;;;;;3.80;2.10;;;;;;;23.08;60.26;101112.33;107314;1249;70083;-73
2022/06/26 11:34:57;;;;;;;5.80;2.10;;;;;;;23.07;59.70;101109.28;109734;1249;63299;-73
2022/06/26 11:37:38;;;;;;;5.40;2.10;;;;;;;22.96;60.97;101104.33;107922;1250;61395;-74
2022/06/26 11:40:16;;;;;;;5.10;2.10;;;;;;;23.21;59.03;101108.24;107714;1250;61421;-70
2022/06/26 11:42:46;;;;;;;4.40;2.30;;;;;;;23.13;61.59;101107.11;107492;1250;74154;-68
2022/06/26 11:45:26;;;;;;;4.40;2.30;;;;;;;23.37;58.86;101105.45;107419;1250;71985;-70
2022/06/26 11:47:55;;;;;;;5.40;2.40;;;;;;;23.55;59.79;101104.36;107291;1249;70271;-69
2022/06/26 11:50:29;;;;;;;4.30;2.50;;;;;;;23.86;59.87;101105.96;107467;1250;74475;-70